sensor_id;sensor_type;location;lat;lon;timestamp;P1;durP1;ratioP1;P2;durP2;ratioP2
24337;SDS011;12457;50.832;4.346;2023-07-24T00:01:17;15.65;;;6.78;;
24337;SDS011;12457;50.832;4.346;2023-07-24T00:03:43;19.13;;;7.55;;
24337;SDS011;12457;50.832;4.346;2023-07-24T00:06:09;16.48;;;6.50;;
24337;SDS011;12457;50.832;4.346;2023-07-24T00:08:35;18.42;;;7.95;;
24337;SDS011;12457;50.832;4.346;2023-07-24T00:11:00;12.23;;;7.90;;
24337;SDS011;12457;50.832;4.346;2023-07-24T00:13:29;17.83;;;7.55;;
24337;SDS011;12457;50.832;4.346;2023-07-24T00:15:55;18.33;;;7.88;;
24337;SDS011;12457;50.832;4.346;2023-07-24T00:18:21;15.70;;;7.70;;
24337;SDS011;12457;50.832;4.346;2023-07-24T00:20:47;16.83;;;7.75;;
24337;SDS011;12457;50.832;4.346;2023-07-24T00:23:13;16.02;;;7.45;;
24337;SDS011;12457;50.832;4.346;2023-07-24T00:25:39;12.52;;;7.05;;
24337;SDS011;12457;50.832;4.346;2023-07-24T00:28:04;15.27;;;7.82;;
24337;SDS011;12457;50.832;4.346;2023-07-24T00:30:30;14.68;;;7.13;;
24337;SDS011;12457;50.832;4.346;2023-07-24T00:32:56;15.23;;;7.72;;
24337;SDS011;12457;50.832;4.346;2023-07-24T00:35:21;16.33;;;6.10;;
24337;SDS011;12457;50.832;4.346;2023-07-24T00:37:47;13.20;;;6.65;;
24337;SDS011;12457;50.832;4.346;2023-07-24T00:40:13;15.02;;;7.45;;
24337;SDS011;12457;50.832;4.346;2023-07-24T00:42:38;10.50;;;6.93;;
24337;SDS011;12457;50.832;4.346;2023-07-24T00:45:04;14.98;;;6.82;;
24337;SDS011;12457;50.832;4.346;2023-07-24T00:47:30;11.30;;;6.78;;
24337;SDS011;12457;50.832;4.346;2023-07-24T00:49:56;15.73;;;6.90;;
24337;SDS011;12457;50.832;4.346;2023-07-24T00:52:22;12.52;;;6.80;;
24337;SDS011;12457;50.832;4.346;2023-07-24T00:54:48;12.90;;;6.15;;
24337;SDS011;12457;50.832;4.346;2023-07-24T00:57:14;17.60;;;6.13;;
24337;SDS011;12457;50.832;4.346;2023-07-24T00:59:41;11.57;;;6.72;;
24337;SDS011;12457;50.832;4.346;2023-07-24T01:02:07;17.65;;;6.22;;
24337;SDS011;12457;50.832;4.346;2023-07-24T01:04:33;13.82;;;6.05;;
24337;SDS011;12457;50.832;4.346;2023-07-24T01:06:59;15.05;;;7.10;;
24337;SDS011;12457;50.832;4.346;2023-07-24T01:09:25;13.05;;;7.00;;
24337;SDS011;12457;50.832;4.346;2023-07-24T01:11:54;12.23;;;6.07;;
24337;SDS011;12457;50.832;4.346;2023-07-24T01:14:28;12.50;;;6.22;;
24337;SDS011;12457;50.832;4.346;2023-07-24T01:17:03;15.90;;;6.05;;
24337;SDS011;12457;50.832;4.346;2023-07-24T01:19:35;13.27;;;6.03;;
24337;SDS011;12457;50.832;4.346;2023-07-24T01:27:20;13.50;;;6.80;;
24337;SDS011;12457;50.832;4.346;2023-07-24T01:29:49;13.02;;;6.18;;
24337;SDS011;12457;50.832;4.346;2023-07-24T01:32:15;11.10;;;5.30;;
24337;SDS011;12457;50.832;4.346;2023-07-24T01:34:42;13.23;;;6.00;;
24337;SDS011;12457;50.832;4.346;2023-07-24T01:37:07;9.77;;;5.90;;
24337;SDS011;12457;50.832;4.346;2023-07-24T01:39:36;11.43;;;6.55;;
24337;SDS011;12457;50.832;4.346;2023-07-24T01:42:03;12.30;;;5.72;;
24337;SDS011;12457;50.832;4.346;2023-07-24T01:44:30;18.33;;;5.75;;
24337;SDS011;12457;50.832;4.346;2023-07-24T01:46:57;17.70;;;6.53;;
24337;SDS011;12457;50.832;4.346;2023-07-24T01:49:23;26.35;;;6.45;;
24337;SDS011;12457;50.832;4.346;2023-07-24T01:51:48;18.50;;;6.28;;
24337;SDS011;12457;50.832;4.346;2023-07-24T01:54:14;18.83;;;6.30;;
24337;SDS011;12457;50.832;4.346;2023-07-24T01:56:40;15.10;;;6.25;;
24337;SDS011;12457;50.832;4.346;2023-07-24T01:59:05;10.93;;;5.50;;
24337;SDS011;12457;50.832;4.346;2023-07-24T02:01:31;11.73;;;5.75;;
24337;SDS011;12457;50.832;4.346;2023-07-24T02:03:57;11.98;;;6.03;;
24337;SDS011;12457;50.832;4.346;2023-07-24T02:06:22;11.35;;;5.85;;
24337;SDS011;12457;50.832;4.346;2023-07-24T02:08:48;8.60;;;4.90;;
24337;SDS011;12457;50.832;4.346;2023-07-24T02:11:16;9.73;;;5.05;;
24337;SDS011;12457;50.832;4.346;2023-07-24T02:13:44;10.65;;;4.28;;
24337;SDS011;12457;50.832;4.346;2023-07-24T02:16:10;7.28;;;4.40;;
24337;SDS011;12457;50.832;4.346;2023-07-24T02:18:40;10.93;;;4.15;;
24337;SDS011;12457;50.832;4.346;2023-07-24T02:21:07;6.93;;;3.10;;
24337;SDS011;12457;50.832;4.346;2023-07-24T02:23:33;0.00;;;0.00;;
24337;SDS011;12457;50.832;4.346;2023-07-24T02:25:59;0.52;;;0.52;;
24337;SDS011;12457;50.832;4.346;2023-07-24T02:28:25;0.08;;;0.08;;
24337;SDS011;12457;50.832;4.346;2023-07-24T02:30:51;0.10;;;0.10;;
24337;SDS011;12457;50.832;4.346;2023-07-24T02:33:20;0.00;;;0.00;;
24337;SDS011;12457;50.832;4.346;2023-07-24T02:35:46;0.32;;;0.32;;
24337;SDS011;12457;50.832;4.346;2023-07-24T02:38:12;0.10;;;0.10;;
24337;SDS011;12457;50.832;4.346;2023-07-24T02:40:40;0.10;;;0.10;;
24337;SDS011;12457;50.832;4.346;2023-07-24T02:43:07;0.20;;;0.17;;
24337;SDS011;12457;50.832;4.346;2023-07-24T02:45:36;0.13;;;0.13;;
24337;SDS011;12457;50.832;4.346;2023-07-24T02:48:03;0.20;;;0.20;;
24337;SDS011;12457;50.832;4.346;2023-07-24T02:50:29;0.57;;;0.20;;
24337;SDS011;12457;50.832;4.346;2023-07-24T02:52:54;0.00;;;0.00;;
24337;SDS011;12457;50.832;4.346;2023-07-24T02:55:20;0.20;;;0.20;;
24337;SDS011;12457;50.832;4.346;2023-07-24T02:57:46;0.00;;;0.00;;
24337;SDS011;12457;50.832;4.346;2023-07-24T03:00:12;0.10;;;0.10;;
24337;SDS011;12457;50.832;4.346;2023-07-24T03:02:38;0.08;;;0.08;;
24337;SDS011;12457;50.832;4.346;2023-07-24T03:05:04;1.35;;;0.85;;
24337;SDS011;12457;50.832;4.346;2023-07-24T03:07:31;0.10;;;0.10;;
24337;SDS011;12457;50.832;4.346;2023-07-24T03:09:57;0.00;;;0.00;;
24337;SDS011;12457;50.832;4.346;2023-07-24T03:12:23;0.05;;;0.05;;
24337;SDS011;12457;50.832;4.346;2023-07-24T03:14:49;0.13;;;0.13;;
24337;SDS011;12457;50.832;4.346;2023-07-24T03:17:14;0.00;;;0.00;;
24337;SDS011;12457;50.832;4.346;2023-07-24T03:19:40;0.00;;;0.00;;
24337;SDS011;12457;50.832;4.346;2023-07-24T03:22:06;0.00;;;0.00;;
24337;SDS011;12457;50.832;4.346;2023-07-24T03:24:33;0.03;;;0.03;;
24337;SDS011;12457;50.832;4.346;2023-07-24T03:26:59;0.47;;;0.30;;
24337;SDS011;12457;50.832;4.346;2023-07-24T03:29:26;0.00;;;0.00;;
24337;SDS011;12457;50.832;4.346;2023-07-24T03:31:52;0.20;;;0.20;;
24337;SDS011;12457;50.832;4.346;2023-07-24T03:34:18;0.10;;;0.10;;
24337;SDS011;12457;50.832;4.346;2023-07-24T03:36:44;0.00;;;0.00;;
24337;SDS011;12457;50.832;4.346;2023-07-24T03:39:10;0.00;;;0.00;;
24337;SDS011;12457;50.832;4.346;2023-07-24T03:41:36;0.10;;;0.10;;
24337;SDS011;12457;50.832;4.346;2023-07-24T03:44:02;0.20;;;0.10;;
24337;SDS011;12457;50.832;4.346;2023-07-24T03:46:28;0.00;;;0.00;;
24337;SDS011;12457;50.832;4.346;2023-07-24T03:48:54;0.10;;;0.10;;
24337;SDS011;12457;50.832;4.346;2023-07-24T03:51:20;0.00;;;0.00;;
24337;SDS011;12457;50.832;4.346;2023-07-24T03:53:46;0.08;;;0.08;;
24337;SDS011;12457;50.832;4.346;2023-07-24T03:56:11;0.05;;;0.05;;
24337;SDS011;12457;50.832;4.346;2023-07-24T03:58:37;0.05;;;0.05;;
24337;SDS011;12457;50.832;4.346;2023-07-24T04:01:04;0.10;;;0.10;;
24337;SDS011;12457;50.832;4.346;2023-07-24T04:03:30;0.00;;;0.00;;
24337;SDS011;12457;50.832;4.346;2023-07-24T04:05:56;2.10;;;0.20;;
24337;SDS011;12457;50.832;4.346;2023-07-24T04:08:22;0.08;;;0.08;;
24337;SDS011;12457;50.832;4.346;2023-07-24T04:10:47;0.10;;;0.10;;
24337;SDS011;12457;50.832;4.346;2023-07-24T04:13:13;0.15;;;0.15;;
24337;SDS011;12457;50.832;4.346;2023-07-24T04:15:39;1.15;;;0.22;;
24337;SDS011;12457;50.832;4.346;2023-07-24T04:18:05;0.10;;;0.10;;
24337;SDS011;12457;50.832;4.346;2023-07-24T04:20:30;0.00;;;0.00;;
24337;SDS011;12457;50.832;4.346;2023-07-24T04:22:56;0.80;;;0.20;;
24337;SDS011;12457;50.832;4.346;2023-07-24T04:25:22;0.22;;;0.13;;
24337;SDS011;12457;50.832;4.346;2023-07-24T04:27:47;1.75;;;0.22;;
24337;SDS011;12457;50.832;4.346;2023-07-24T04:30:13;0.00;;;0.00;;
24337;SDS011;12457;50.832;4.346;2023-07-24T04:32:39;0.00;;;0.00;;
24337;SDS011;12457;50.832;4.346;2023-07-24T04:35:04;0.08;;;0.08;;
24337;SDS011;12457;50.832;4.346;2023-07-24T04:37:31;0.30;;;0.30;;
24337;SDS011;12457;50.832;4.346;2023-07-24T04:39:56;0.00;;;0.00;;
24337;SDS011;12457;50.832;4.346;2023-07-24T04:42:22;0.00;;;0.00;;
24337;SDS011;12457;50.832;4.346;2023-07-24T04:45:00;0.00;;;0.00;;
24337;SDS011;12457;50.832;4.346;2023-07-24T04:47:26;0.17;;;0.17;;
24337;SDS011;12457;50.832;4.346;2023-07-24T04:49:51;0.20;;;0.20;;
24337;SDS011;12457;50.832;4.346;2023-07-24T04:52:17;0.00;;;0.00;;
24337;SDS011;12457;50.832;4.346;2023-07-24T04:54:42;0.10;;;0.10;;
24337;SDS011;12457;50.832;4.346;2023-07-24T04:57:08;0.55;;;0.43;;
24337;SDS011;12457;50.832;4.346;2023-07-24T04:59:34;0.10;;;0.10;;
24337;SDS011;12457;50.832;4.346;2023-07-24T05:01:59;0.00;;;0.00;;
24337;SDS011;12457;50.832;4.346;2023-07-24T05:04:25;0.08;;;0.08;;
24337;SDS011;12457;50.832;4.346;2023-07-24T05:06:51;0.10;;;0.10;;
24337;SDS011;12457;50.832;4.346;2023-07-24T05:09:16;0.10;;;0.10;;
24337;SDS011;12457;50.832;4.346;2023-07-24T05:11:42;0.17;;;0.10;;
24337;SDS011;12457;50.832;4.346;2023-07-24T05:14:09;0.10;;;0.10;;
24337;SDS011;12457;50.832;4.346;2023-07-24T05:16:39;0.10;;;0.10;;
24337;SDS011;12457;50.832;4.346;2023-07-24T05:19:04;0.00;;;0.00;;
24337;SDS011;12457;50.832;4.346;2023-07-24T05:21:30;0.70;;;0.52;;
24337;SDS011;12457;50.832;4.346;2023-07-24T05:23:56;0.10;;;0.10;;
24337;SDS011;12457;50.832;4.346;2023-07-24T05:26:21;0.17;;;0.17;;
24337;SDS011;12457;50.832;4.346;2023-07-24T05:28:47;0.88;;;0.28;;
24337;SDS011;12457;50.832;4.346;2023-07-24T05:31:13;0.10;;;0.10;;
24337;SDS011;12457;50.832;4.346;2023-07-24T05:33:38;0.03;;;0.03;;
24337;SDS011;12457;50.832;4.346;2023-07-24T05:36:04;0.05;;;0.05;;
24337;SDS011;12457;50.832;4.346;2023-07-24T05:38:30;0.10;;;0.10;;
24337;SDS011;12457;50.832;4.346;2023-07-24T05:40:56;0.00;;;0.00;;
24337;SDS011;12457;50.832;4.346;2023-07-24T05:43:26;0.85;;;0.20;;
24337;SDS011;12457;50.832;4.346;2023-07-24T05:45:53;0.55;;;0.55;;
24337;SDS011;12457;50.832;4.346;2023-07-24T05:48:20;0.30;;;0.20;;
24337;SDS011;12457;50.832;4.346;2023-07-24T05:50:46;0.00;;;0.00;;
24337;SDS011;12457;50.832;4.346;2023-07-24T05:53:13;0.20;;;0.20;;
24337;SDS011;12457;50.832;4.346;2023-07-24T05:55:39;0.05;;;0.05;;
24337;SDS011;12457;50.832;4.346;2023-07-24T05:58:04;0.10;;;0.10;;
24337;SDS011;12457;50.832;4.346;2023-07-24T06:00:30;0.00;;;0.00;;
24337;SDS011;12457;50.832;4.346;2023-07-24T06:02:56;0.00;;;0.00;;
24337;SDS011;12457;50.832;4.346;2023-07-24T06:05:21;0.10;;;0.10;;
24337;SDS011;12457;50.832;4.346;2023-07-24T06:07:47;0.20;;;0.20;;
24337;SDS011;12457;50.832;4.346;2023-07-24T06:10:13;0.00;;;0.00;;
24337;SDS011;12457;50.832;4.346;2023-07-24T06:12:39;0.00;;;0.00;;
24337;SDS011;12457;50.832;4.346;2023-07-24T06:15:05;0.10;;;0.10;;
24337;SDS011;12457;50.832;4.346;2023-07-24T06:17:31;0.00;;;0.00;;
24337;SDS011;12457;50.832;4.346;2023-07-24T06:19:57;0.05;;;0.05;;
24337;SDS011;12457;50.832;4.346;2023-07-24T06:22:23;0.17;;;0.17;;
24337;SDS011;12457;50.832;4.346;2023-07-24T06:24:48;0.10;;;0.10;;
24337;SDS011;12457;50.832;4.346;2023-07-24T06:27:14;0.00;;;0.00;;
24337;SDS011;12457;50.832;4.346;2023-07-24T06:29:40;0.17;;;0.10;;
24337;SDS011;12457;50.832;4.346;2023-07-24T06:32:11;0.10;;;0.10;;
24337;SDS011;12457;50.832;4.346;2023-07-24T06:34:37;1.45;;;0.52;;
24337;SDS011;12457;50.832;4.346;2023-07-24T06:37:03;0.10;;;0.10;;
24337;SDS011;12457;50.832;4.346;2023-07-24T06:39:28;0.52;;;0.47;;
24337;SDS011;12457;50.832;4.346;2023-07-24T06:41:54;0.15;;;0.15;;
24337;SDS011;12457;50.832;4.346;2023-07-24T06:44:20;5.63;;;1.95;;
24337;SDS011;12457;50.832;4.346;2023-07-24T06:46:47;4.60;;;2.30;;
24337;SDS011;12457;50.832;4.346;2023-07-24T06:49:13;5.90;;;2.20;;
24337;SDS011;12457;50.832;4.346;2023-07-24T06:51:39;4.57;;;2.10;;
24337;SDS011;12457;50.832;4.346;2023-07-24T06:54:05;7.32;;;2.40;;
24337;SDS011;12457;50.832;4.346;2023-07-24T06:56:31;8.23;;;2.33;;
24337;SDS011;12457;50.832;4.346;2023-07-24T06:58:57;3.25;;;2.15;;
24337;SDS011;12457;50.832;4.346;2023-07-24T07:01:22;5.88;;;2.22;;
24337;SDS011;12457;50.832;4.346;2023-07-24T07:03:48;3.92;;;2.45;;
24337;SDS011;12457;50.832;4.346;2023-07-24T07:06:14;6.10;;;2.40;;
24337;SDS011;12457;50.832;4.346;2023-07-24T07:08:40;4.05;;;2.50;;
24337;SDS011;12457;50.832;4.346;2023-07-24T07:11:06;3.55;;;2.67;;
24337;SDS011;12457;50.832;4.346;2023-07-24T07:13:32;2.65;;;2.10;;
24337;SDS011;12457;50.832;4.346;2023-07-24T07:15:58;4.95;;;2.60;;
24337;SDS011;12457;50.832;4.346;2023-07-24T07:18:23;3.58;;;2.40;;
24337;SDS011;12457;50.832;4.346;2023-07-24T07:20:50;4.72;;;2.83;;
24337;SDS011;12457;50.832;4.346;2023-07-24T07:23:17;6.93;;;2.63;;
24337;SDS011;12457;50.832;4.346;2023-07-24T07:25:44;9.23;;;2.70;;
24337;SDS011;12457;50.832;4.346;2023-07-24T07:28:12;5.00;;;2.50;;
24337;SDS011;12457;50.832;4.346;2023-07-24T07:30:42;3.67;;;2.17;;
24337;SDS011;12457;50.832;4.346;2023-07-24T07:33:08;4.38;;;2.58;;
24337;SDS011;12457;50.832;4.346;2023-07-24T07:35:35;5.55;;;2.63;;
24337;SDS011;12457;50.832;4.346;2023-07-24T07:38:01;7.32;;;2.08;;
24337;SDS011;12457;50.832;4.346;2023-07-24T07:40:28;4.32;;;2.20;;
24337;SDS011;12457;50.832;4.346;2023-07-24T07:42:57;5.03;;;2.60;;
24337;SDS011;12457;50.832;4.346;2023-07-24T07:45:23;6.28;;;2.20;;
24337;SDS011;12457;50.832;4.346;2023-07-24T07:47:49;5.30;;;2.50;;
24337;SDS011;12457;50.832;4.346;2023-07-24T07:50:15;3.30;;;2.20;;
24337;SDS011;12457;50.832;4.346;2023-07-24T07:52:41;10.45;;;2.40;;
24337;SDS011;12457;50.832;4.346;2023-07-24T07:55:07;4.13;;;1.98;;
24337;SDS011;12457;50.832;4.346;2023-07-24T07:57:35;4.53;;;2.00;;
24337;SDS011;12457;50.832;4.346;2023-07-24T08:00:02;8.98;;;2.30;;
24337;SDS011;12457;50.832;4.346;2023-07-24T08:02:29;3.22;;;2.13;;
24337;SDS011;12457;50.832;4.346;2023-07-24T08:04:55;4.88;;;2.13;;
24337;SDS011;12457;50.832;4.346;2023-07-24T08:07:21;4.18;;;1.92;;
24337;SDS011;12457;50.832;4.346;2023-07-24T08:09:46;4.32;;;2.00;;
24337;SDS011;12457;50.832;4.346;2023-07-24T08:12:12;3.85;;;2.88;;
24337;SDS011;12457;50.832;4.346;2023-07-24T08:14:38;3.90;;;2.20;;
24337;SDS011;12457;50.832;4.346;2023-07-24T08:17:03;3.97;;;2.40;;
24337;SDS011;12457;50.832;4.346;2023-07-24T08:19:29;5.28;;;2.42;;
24337;SDS011;12457;50.832;4.346;2023-07-24T08:21:55;3.42;;;2.38;;
24337;SDS011;12457;50.832;4.346;2023-07-24T08:24:21;7.45;;;2.80;;
24337;SDS011;12457;50.832;4.346;2023-07-24T08:26:46;5.40;;;3.08;;
24337;SDS011;12457;50.832;4.346;2023-07-24T08:29:12;7.13;;;2.72;;
24337;SDS011;12457;50.832;4.346;2023-07-24T08:34:35;4.32;;;2.60;;
24337;SDS011;12457;50.832;4.346;2023-07-24T08:37:00;4.68;;;2.63;;
24337;SDS011;12457;50.832;4.346;2023-07-24T08:39:26;6.85;;;3.30;;
24337;SDS011;12457;50.832;4.346;2023-07-24T08:41:51;9.98;;;3.20;;
24337;SDS011;12457;50.832;4.346;2023-07-24T08:44:17;5.85;;;3.28;;
24337;SDS011;12457;50.832;4.346;2023-07-24T08:46:43;4.05;;;2.70;;
24337;SDS011;12457;50.832;4.346;2023-07-24T08:49:12;4.35;;;2.28;;
24337;SDS011;12457;50.832;4.346;2023-07-24T08:51:39;7.13;;;3.10;;
24337;SDS011;12457;50.832;4.346;2023-07-24T08:54:07;8.13;;;4.00;;
24337;SDS011;12457;50.832;4.346;2023-07-24T08:56:35;8.80;;;2.50;;
24337;SDS011;12457;50.832;4.346;2023-07-24T08:59:02;4.28;;;2.83;;
24337;SDS011;12457;50.832;4.346;2023-07-24T09:01:28;9.27;;;3.42;;
24337;SDS011;12457;50.832;4.346;2023-07-24T09:03:55;4.80;;;3.08;;
24337;SDS011;12457;50.832;4.346;2023-07-24T09:06:21;5.45;;;3.20;;
24337;SDS011;12457;50.832;4.346;2023-07-24T09:08:47;9.63;;;3.40;;
24337;SDS011;12457;50.832;4.346;2023-07-24T09:11:13;10.05;;;2.92;;
24337;SDS011;12457;50.832;4.346;2023-07-24T09:13:43;6.53;;;2.88;;
24337;SDS011;12457;50.832;4.346;2023-07-24T09:19:04;5.60;;;3.03;;
24337;SDS011;12457;50.832;4.346;2023-07-24T09:21:30;4.28;;;3.08;;
24337;SDS011;12457;50.832;4.346;2023-07-24T09:23:56;4.75;;;2.88;;
24337;SDS011;12457;50.832;4.346;2023-07-24T09:26:23;5.88;;;3.40;;
24337;SDS011;12457;50.832;4.346;2023-07-24T09:28:52;5.25;;;3.00;;
24337;SDS011;12457;50.832;4.346;2023-07-24T09:31:53;6.05;;;3.15;;
24337;SDS011;12457;50.832;4.346;2023-07-24T09:34:17;6.38;;;3.40;;
24337;SDS011;12457;50.832;4.346;2023-07-24T09:36:44;6.32;;;3.63;;
24337;SDS011;12457;50.832;4.346;2023-07-24T09:39:10;8.52;;;3.75;;
24337;SDS011;12457;50.832;4.346;2023-07-24T09:41:37;7.40;;;4.60;;
24337;SDS011;12457;50.832;4.346;2023-07-24T09:44:04;8.40;;;3.90;;
24337;SDS011;12457;50.832;4.346;2023-07-24T09:46:30;6.80;;;4.05;;
24337;SDS011;12457;50.832;4.346;2023-07-24T09:48:57;9.98;;;3.63;;
24337;SDS011;12457;50.832;4.346;2023-07-24T09:51:23;8.02;;;3.80;;
24337;SDS011;12457;50.832;4.346;2023-07-24T09:58:49;7.47;;;4.30;;
24337;SDS011;12457;50.832;4.346;2023-07-24T10:01:19;4.65;;;4.00;;
24337;SDS011;12457;50.832;4.346;2023-07-24T10:03:49;5.47;;;3.47;;
24337;SDS011;12457;50.832;4.346;2023-07-24T10:06:15;4.38;;;3.40;;
24337;SDS011;12457;50.832;4.346;2023-07-24T10:08:41;4.72;;;2.97;;
24337;SDS011;12457;50.832;4.346;2023-07-24T10:11:08;6.03;;;3.25;;
24337;SDS011;12457;50.832;4.346;2023-07-24T10:13:36;8.93;;;3.72;;
24337;SDS011;12457;50.832;4.346;2023-07-24T10:16:02;7.13;;;3.72;;
24337;SDS011;12457;50.832;4.346;2023-07-24T10:18:32;4.18;;;3.05;;
24337;SDS011;12457;50.832;4.346;2023-07-24T10:21:06;4.70;;;3.05;;
24337;SDS011;12457;50.832;4.346;2023-07-24T10:23:34;4.13;;;2.90;;
24337;SDS011;12457;50.832;4.346;2023-07-24T10:26:04;4.85;;;3.20;;
24337;SDS011;12457;50.832;4.346;2023-07-24T10:28:34;4.85;;;2.92;;
24337;SDS011;12457;50.832;4.346;2023-07-24T10:31:19;8.80;;;4.13;;
24337;SDS011;12457;50.832;4.346;2023-07-24T10:33:45;3.30;;;2.65;;
24337;SDS011;12457;50.832;4.346;2023-07-24T10:36:11;5.80;;;3.20;;
24337;SDS011;12457;50.832;4.346;2023-07-24T10:38:42;4.35;;;2.90;;
24337;SDS011;12457;50.832;4.346;2023-07-24T10:41:09;4.03;;;2.60;;
24337;SDS011;12457;50.832;4.346;2023-07-24T10:43:43;5.20;;;2.80;;
24337;SDS011;12457;50.832;4.346;2023-07-24T10:46:10;5.75;;;2.95;;
24337;SDS011;12457;50.832;4.346;2023-07-24T10:48:37;4.40;;;3.00;;
24337;SDS011;12457;50.832;4.346;2023-07-24T10:51:07;3.85;;;3.00;;
24337;SDS011;12457;50.832;4.346;2023-07-24T10:53:34;4.50;;;3.30;;
24337;SDS011;12457;50.832;4.346;2023-07-24T10:56:01;5.55;;;3.03;;
24337;SDS011;12457;50.832;4.346;2023-07-24T10:58:27;8.07;;;3.20;;
24337;SDS011;12457;50.832;4.346;2023-07-24T11:00:53;3.38;;;2.75;;
24337;SDS011;12457;50.832;4.346;2023-07-24T11:03:20;4.78;;;3.10;;
24337;SDS011;12457;50.832;4.346;2023-07-24T11:05:46;4.65;;;2.90;;
24337;SDS011;12457;50.832;4.346;2023-07-24T11:08:13;5.60;;;3.28;;
24337;SDS011;12457;50.832;4.346;2023-07-24T11:10:46;5.65;;;2.72;;
24337;SDS011;12457;50.832;4.346;2023-07-24T11:13:18;4.68;;;3.20;;
24337;SDS011;12457;50.832;4.346;2023-07-24T11:15:46;4.40;;;3.20;;
24337;SDS011;12457;50.832;4.346;2023-07-24T11:18:12;4.03;;;3.33;;
24337;SDS011;12457;50.832;4.346;2023-07-24T11:20:59;4.88;;;3.17;;
24337;SDS011;12457;50.832;4.346;2023-07-24T11:23:24;3.33;;;2.63;;
24337;SDS011;12457;50.832;4.346;2023-07-24T11:25:50;4.72;;;2.90;;
24337;SDS011;12457;50.832;4.346;2023-07-24T11:28:17;8.00;;;3.88;;
24337;SDS011;12457;50.832;4.346;2023-07-24T11:30:43;7.60;;;3.38;;
24337;SDS011;12457;50.832;4.346;2023-07-24T11:33:09;4.93;;;2.97;;
24337;SDS011;12457;50.832;4.346;2023-07-24T11:35:36;6.45;;;3.40;;
24337;SDS011;12457;50.832;4.346;2023-07-24T11:38:05;6.10;;;3.78;;
24337;SDS011;12457;50.832;4.346;2023-07-24T11:43:00;5.38;;;3.55;;
24337;SDS011;12457;50.832;4.346;2023-07-24T11:45:26;5.65;;;3.63;;
24337;SDS011;12457;50.832;4.346;2023-07-24T11:51:13;3.83;;;3.08;;
24337;SDS011;12457;50.832;4.346;2023-07-24T11:53:39;5.40;;;2.83;;
24337;SDS011;12457;50.832;4.346;2023-07-24T11:56:12;4.75;;;3.05;;
24337;SDS011;12457;50.832;4.346;2023-07-24T11:58:39;4.65;;;3.08;;
24337;SDS011;12457;50.832;4.346;2023-07-24T12:01:04;4.10;;;2.75;;
24337;SDS011;12457;50.832;4.346;2023-07-24T12:03:30;5.95;;;3.03;;
24337;SDS011;12457;50.832;4.346;2023-07-24T12:05:56;5.57;;;2.90;;
24337;SDS011;12457;50.832;4.346;2023-07-24T12:08:32;4.95;;;3.47;;
24337;SDS011;12457;50.832;4.346;2023-07-24T12:10:59;7.47;;;2.90;;
24337;SDS011;12457;50.832;4.346;2023-07-24T12:13:25;7.00;;;2.90;;
24337;SDS011;12457;50.832;4.346;2023-07-24T12:15:51;4.95;;;3.30;;
24337;SDS011;12457;50.832;4.346;2023-07-24T12:21:42;3.83;;;2.92;;
24337;SDS011;12457;50.832;4.346;2023-07-24T12:24:07;5.70;;;2.67;;
24337;SDS011;12457;50.832;4.346;2023-07-24T12:26:33;5.70;;;3.00;;
24337;SDS011;12457;50.832;4.346;2023-07-24T12:28:59;4.45;;;3.20;;
24337;SDS011;12457;50.832;4.346;2023-07-24T12:31:25;4.25;;;3.03;;
24337;SDS011;12457;50.832;4.346;2023-07-24T12:34:03;3.90;;;3.05;;
24337;SDS011;12457;50.832;4.346;2023-07-24T12:36:28;8.00;;;2.67;;
24337;SDS011;12457;50.832;4.346;2023-07-24T12:38:54;6.70;;;2.97;;
24337;SDS011;12457;50.832;4.346;2023-07-24T12:41:20;6.65;;;3.05;;
24337;SDS011;12457;50.832;4.346;2023-07-24T12:43:45;5.85;;;3.13;;
24337;SDS011;12457;50.832;4.346;2023-07-24T12:46:11;5.63;;;3.05;;
24337;SDS011;12457;50.832;4.346;2023-07-24T12:48:37;5.03;;;3.38;;
24337;SDS011;12457;50.832;4.346;2023-07-24T12:51:03;4.88;;;3.00;;
24337;SDS011;12457;50.832;4.346;2023-07-24T12:53:28;7.13;;;3.50;;
24337;SDS011;12457;50.832;4.346;2023-07-24T12:55:54;6.95;;;3.22;;
24337;SDS011;12457;50.832;4.346;2023-07-24T12:58:20;5.78;;;3.20;;
24337;SDS011;12457;50.832;4.346;2023-07-24T13:00:45;7.57;;;3.30;;
24337;SDS011;12457;50.832;4.346;2023-07-24T13:03:11;7.15;;;3.13;;
24337;SDS011;12457;50.832;4.346;2023-07-24T13:05:37;7.28;;;3.40;;
24337;SDS011;12457;50.832;4.346;2023-07-24T13:08:03;5.72;;;3.30;;
24337;SDS011;12457;50.832;4.346;2023-07-24T13:10:29;6.50;;;3.10;;
24337;SDS011;12457;50.832;4.346;2023-07-24T13:12:55;5.20;;;3.63;;
24337;SDS011;12457;50.832;4.346;2023-07-24T13:15:21;5.57;;;3.67;;
24337;SDS011;12457;50.832;4.346;2023-07-24T13:17:47;8.27;;;3.30;;
24337;SDS011;12457;50.832;4.346;2023-07-24T13:20:13;4.78;;;3.10;;
24337;SDS011;12457;50.832;4.346;2023-07-24T13:22:39;6.85;;;3.40;;
24337;SDS011;12457;50.832;4.346;2023-07-24T13:25:06;6.30;;;3.00;;
24337;SDS011;12457;50.832;4.346;2023-07-24T13:27:31;6.50;;;3.55;;
24337;SDS011;12457;50.832;4.346;2023-07-24T13:29:57;4.88;;;3.10;;
24337;SDS011;12457;50.832;4.346;2023-07-24T13:32:23;6.20;;;3.50;;
24337;SDS011;12457;50.832;4.346;2023-07-24T13:34:49;4.85;;;3.00;;
24337;SDS011;12457;50.832;4.346;2023-07-24T13:37:15;6.88;;;3.67;;
24337;SDS011;12457;50.832;4.346;2023-07-24T13:39:42;7.43;;;3.65;;
24337;SDS011;12457;50.832;4.346;2023-07-24T13:42:08;4.35;;;2.83;;
24337;SDS011;12457;50.832;4.346;2023-07-24T13:44:34;4.72;;;2.83;;
24337;SDS011;12457;50.832;4.346;2023-07-24T13:46:59;5.60;;;2.75;;
24337;SDS011;12457;50.832;4.346;2023-07-24T13:49:25;9.82;;;2.92;;
24337;SDS011;12457;50.832;4.346;2023-07-24T13:51:51;3.90;;;2.80;;
24337;SDS011;12457;50.832;4.346;2023-07-24T13:54:16;4.43;;;2.55;;
24337;SDS011;12457;50.832;4.346;2023-07-24T13:56:42;4.55;;;2.60;;
24337;SDS011;12457;50.832;4.346;2023-07-24T13:59:07;5.82;;;2.78;;
24337;SDS011;12457;50.832;4.346;2023-07-24T14:01:33;5.35;;;2.53;;
24337;SDS011;12457;50.832;4.346;2023-07-24T14:03:59;4.70;;;2.67;;
24337;SDS011;12457;50.832;4.346;2023-07-24T14:06:25;2.92;;;2.25;;
24337;SDS011;12457;50.832;4.346;2023-07-24T14:08:51;6.10;;;3.05;;
24337;SDS011;12457;50.832;4.346;2023-07-24T14:11:17;7.60;;;2.85;;
24337;SDS011;12457;50.832;4.346;2023-07-24T14:13:42;3.88;;;2.38;;
24337;SDS011;12457;50.832;4.346;2023-07-24T14:16:10;5.97;;;2.40;;
24337;SDS011;12457;50.832;4.346;2023-07-24T14:18:35;5.85;;;2.50;;
24337;SDS011;12457;50.832;4.346;2023-07-24T14:21:13;5.32;;;2.55;;
24337;SDS011;12457;50.832;4.346;2023-07-24T14:23:38;6.93;;;2.50;;
24337;SDS011;12457;50.832;4.346;2023-07-24T14:26:04;3.90;;;2.40;;
24337;SDS011;12457;50.832;4.346;2023-07-24T14:28:30;3.67;;;2.58;;
24337;SDS011;12457;50.832;4.346;2023-07-24T14:30:56;6.93;;;2.40;;
24337;SDS011;12457;50.832;4.346;2023-07-24T14:33:21;5.03;;;2.50;;
24337;SDS011;12457;50.832;4.346;2023-07-24T14:35:47;7.03;;;2.40;;
24337;SDS011;12457;50.832;4.346;2023-07-24T14:38:14;3.40;;;2.53;;
24337;SDS011;12457;50.832;4.346;2023-07-24T14:40:40;9.35;;;2.97;;
24337;SDS011;12457;50.832;4.346;2023-07-24T14:43:05;6.43;;;2.95;;
24337;SDS011;12457;50.832;4.346;2023-07-24T14:45:31;5.55;;;2.50;;
24337;SDS011;12457;50.832;4.346;2023-07-24T14:47:57;4.25;;;2.25;;
24337;SDS011;12457;50.832;4.346;2023-07-24T14:50:28;6.25;;;2.63;;
24337;SDS011;12457;50.832;4.346;2023-07-24T14:52:53;4.47;;;2.45;;
24337;SDS011;12457;50.832;4.346;2023-07-24T14:55:21;5.95;;;2.65;;
24337;SDS011;12457;50.832;4.346;2023-07-24T14:57:46;5.38;;;2.75;;
24337;SDS011;12457;50.832;4.346;2023-07-24T15:00:13;6.43;;;2.42;;
24337;SDS011;12457;50.832;4.346;2023-07-24T15:02:39;6.25;;;2.40;;
24337;SDS011;12457;50.832;4.346;2023-07-24T15:05:04;3.85;;;2.15;;
24337;SDS011;12457;50.832;4.346;2023-07-24T15:07:30;5.22;;;2.70;;